Terminal Aerodrome Forecast
Issued by NWS Charleston, WV

Current Version | Previous Version | Text Only | Print | Product List | Glossary Off
Versions: 1 2 3 4 5 6 7 8 9 10 11 12 13 14 15 16 17 18 19 20 21 22 23 24 25 26 27 28 29 30 31 32 33

000
FTUS41 KRLX 230540
TAFEKN
TAF
KEKN 230540Z 2306/2406 13003KT 4SM BR SCT003 OVC040
      TEMPO 2306/2307 2SM BR OVC004
     FM231400 17005KT P6SM BKN035
     FM231500 18006KT P6SM BKN025
     FM231800 22008KT P6SM SCT035 BKN200
     FM232100 24009G17KT P6SM OVC040
     FM240200 23005KT P6SM BKN025
     FM240300 23005KT P6SM BKN008
     FM240500 25005KT 4SM BR OVC005=

USA.gov is the U.S. government's official web portal to all federal, state and local government web resources and services.